sensor_id;sensor_type;location;lat;lon;timestamp;P1;durP1;ratioP1;P2;durP2;ratioP2
72688;SDS011;61053;52.166;4.506;2022-09-09T00:01:54;10.10;;;4.97;;
72688;SDS011;61053;52.166;4.506;2022-09-09T00:04:41;8.88;;;5.03;;
72688;SDS011;61053;52.166;4.506;2022-09-09T00:13:18;10.63;;;6.07;;
72688;SDS011;61053;52.166;4.506;2022-09-09T00:18:58;13.57;;;6.63;;
72688;SDS011;61053;52.166;4.506;2022-09-09T00:21:45;15.45;;;6.20;;
72688;SDS011;61053;52.166;4.506;2022-09-09T00:24:38;11.45;;;6.50;;
72688;SDS011;61053;52.166;4.506;2022-09-09T00:27:23;10.60;;;6.60;;
72688;SDS011;61053;52.166;4.506;2022-09-09T00:30:13;17.65;;;6.95;;
72688;SDS011;61053;52.166;4.506;2022-09-09T00:32:44;11.45;;;6.68;;
72688;SDS011;61053;52.166;4.506;2022-09-09T00:38:26;12.23;;;7.40;;
72688;SDS011;61053;52.166;4.506;2022-09-09T00:56:38;15.75;;;9.13;;
72688;SDS011;61053;52.166;4.506;2022-09-09T01:02:31;19.13;;;9.55;;
72688;SDS011;61053;52.166;4.506;2022-09-09T01:05:09;18.83;;;9.70;;
72688;SDS011;61053;52.166;4.506;2022-09-09T01:07:55;19.15;;;9.50;;
72688;SDS011;61053;52.166;4.506;2022-09-09T01:10:45;19.08;;;10.18;;
72688;SDS011;61053;52.166;4.506;2022-09-09T01:13:25;15.20;;;9.43;;
72688;SDS011;61053;52.166;4.506;2022-09-09T01:16:13;16.90;;;9.52;;
72688;SDS011;61053;52.166;4.506;2022-09-09T01:18:44;16.70;;;10.07;;
72688;SDS011;61053;52.166;4.506;2022-09-09T01:21:35;17.85;;;10.40;;
72688;SDS011;61053;52.166;4.506;2022-09-09T01:24:27;15.13;;;11.10;;
72688;SDS011;61053;52.166;4.506;2022-09-09T01:27:10;24.02;;;10.90;;
72688;SDS011;61053;52.166;4.506;2022-09-09T01:29:39;19.73;;;12.00;;
72688;SDS011;61053;52.166;4.506;2022-09-09T01:38:04;22.13;;;12.48;;
72688;SDS011;61053;52.166;4.506;2022-09-09T01:40:30;24.15;;;12.13;;
72688;SDS011;61053;52.166;4.506;2022-09-09T01:42:57;22.17;;;12.13;;
72688;SDS011;61053;52.166;4.506;2022-09-09T01:45:23;19.98;;;13.15;;
72688;SDS011;61053;52.166;4.506;2022-09-09T01:47:50;22.20;;;13.10;;
72688;SDS011;61053;52.166;4.506;2022-09-09T01:50:18;24.88;;;12.57;;
72688;SDS011;61053;52.166;4.506;2022-09-09T01:52:46;23.83;;;14.10;;
72688;SDS011;61053;52.166;4.506;2022-09-09T01:55:29;19.17;;;13.88;;
72688;SDS011;61053;52.166;4.506;2022-09-09T02:01:11;27.10;;;14.90;;
72688;SDS011;61053;52.166;4.506;2022-09-09T02:03:56;30.25;;;17.75;;
72688;SDS011;61053;52.166;4.506;2022-09-09T02:06:28;27.75;;;15.52;;
72688;SDS011;61053;52.166;4.506;2022-09-09T02:09:01;25.17;;;16.58;;
72688;SDS011;61053;52.166;4.506;2022-09-09T02:11:32;25.17;;;15.77;;
72688;SDS011;61053;52.166;4.506;2022-09-09T02:14:10;27.67;;;17.13;;
72688;SDS011;61053;52.166;4.506;2022-09-09T02:16:56;27.17;;;16.67;;
72688;SDS011;61053;52.166;4.506;2022-09-09T02:19:39;27.30;;;15.85;;
72688;SDS011;61053;52.166;4.506;2022-09-09T02:22:14;28.92;;;15.52;;
72688;SDS011;61053;52.166;4.506;2022-09-09T02:24:46;25.90;;;15.23;;
72688;SDS011;61053;52.166;4.506;2022-09-09T02:27:17;20.25;;;14.05;;
72688;SDS011;61053;52.166;4.506;2022-09-09T02:29:45;20.63;;;13.52;;
72688;SDS011;61053;52.166;4.506;2022-09-09T02:32:15;19.00;;;13.02;;
72688;SDS011;61053;52.166;4.506;2022-09-09T02:34:45;18.63;;;12.93;;
72688;SDS011;61053;52.166;4.506;2022-09-09T02:37:20;19.35;;;12.15;;
72688;SDS011;61053;52.166;4.506;2022-09-09T02:39:53;16.17;;;11.93;;
72688;SDS011;61053;52.166;4.506;2022-09-09T02:42:20;18.75;;;11.93;;
72688;SDS011;61053;52.166;4.506;2022-09-09T02:44:46;19.80;;;11.40;;
72688;SDS011;61053;52.166;4.506;2022-09-09T02:52:49;17.92;;;9.52;;
72688;SDS011;61053;52.166;4.506;2022-09-09T02:58:24;12.35;;;7.90;;
72688;SDS011;61053;52.166;4.506;2022-09-09T03:00:53;13.57;;;7.93;;
72688;SDS011;61053;52.166;4.506;2022-09-09T03:03:22;15.07;;;8.35;;
72688;SDS011;61053;52.166;4.506;2022-09-09T03:05:49;17.13;;;8.10;;
72688;SDS011;61053;52.166;4.506;2022-09-09T03:08:14;12.18;;;8.35;;
72688;SDS011;61053;52.166;4.506;2022-09-09T03:10:40;13.00;;;7.75;;
72688;SDS011;61053;52.166;4.506;2022-09-09T03:13:06;14.05;;;7.53;;
72688;SDS011;61053;52.166;4.506;2022-09-09T03:15:32;15.35;;;7.25;;
72688;SDS011;61053;52.166;4.506;2022-09-09T03:17:59;14.45;;;7.07;;
72688;SDS011;61053;52.166;4.506;2022-09-09T03:20:26;10.65;;;6.65;;
72688;SDS011;61053;52.166;4.506;2022-09-09T03:22:54;11.80;;;7.07;;
72688;SDS011;61053;52.166;4.506;2022-09-09T03:25:21;13.07;;;6.47;;
72688;SDS011;61053;52.166;4.506;2022-09-09T03:27:49;14.55;;;6.20;;
72688;SDS011;61053;52.166;4.506;2022-09-09T03:30:23;11.98;;;6.13;;
72688;SDS011;61053;52.166;4.506;2022-09-09T03:32:51;13.10;;;6.75;;
72688;SDS011;61053;52.166;4.506;2022-09-09T03:35:17;10.52;;;6.00;;
72688;SDS011;61053;52.166;4.506;2022-09-09T03:37:43;13.02;;;6.43;;
72688;SDS011;61053;52.166;4.506;2022-09-09T03:40:09;11.18;;;6.25;;
72688;SDS011;61053;52.166;4.506;2022-09-09T03:42:36;12.65;;;5.40;;
72688;SDS011;61053;52.166;4.506;2022-09-09T03:45:03;16.00;;;6.07;;
72688;SDS011;61053;52.166;4.506;2022-09-09T03:47:31;11.48;;;5.70;;
72688;SDS011;61053;52.166;4.506;2022-09-09T03:49:56;12.52;;;5.90;;
72688;SDS011;61053;52.166;4.506;2022-09-09T03:52:22;13.48;;;7.00;;
72688;SDS011;61053;52.166;4.506;2022-09-09T03:54:50;11.05;;;6.35;;
72688;SDS011;61053;52.166;4.506;2022-09-09T03:57:16;9.40;;;5.82;;
72688;SDS011;61053;52.166;4.506;2022-09-09T03:59:42;14.95;;;7.00;;
72688;SDS011;61053;52.166;4.506;2022-09-09T04:02:08;11.07;;;6.80;;
72688;SDS011;61053;52.166;4.506;2022-09-09T04:04:34;13.32;;;6.60;;
72688;SDS011;61053;52.166;4.506;2022-09-09T04:06:59;14.00;;;6.80;;
72688;SDS011;61053;52.166;4.506;2022-09-09T04:09:26;13.10;;;7.28;;
72688;SDS011;61053;52.166;4.506;2022-09-09T04:11:55;14.70;;;6.60;;
72688;SDS011;61053;52.166;4.506;2022-09-09T04:14:21;13.68;;;6.88;;
72688;SDS011;61053;52.166;4.506;2022-09-09T04:16:47;11.75;;;6.60;;
72688;SDS011;61053;52.166;4.506;2022-09-09T04:19:12;14.35;;;6.55;;
72688;SDS011;61053;52.166;4.506;2022-09-09T04:21:41;13.23;;;5.88;;
72688;SDS011;61053;52.166;4.506;2022-09-09T04:24:07;14.65;;;7.30;;
72688;SDS011;61053;52.166;4.506;2022-09-09T04:26:34;14.30;;;6.25;;
72688;SDS011;61053;52.166;4.506;2022-09-09T04:29:01;18.35;;;6.78;;
72688;SDS011;61053;52.166;4.506;2022-09-09T04:31:29;11.90;;;5.90;;
72688;SDS011;61053;52.166;4.506;2022-09-09T04:33:54;15.57;;;6.32;;
72688;SDS011;61053;52.166;4.506;2022-09-09T04:36:20;13.90;;;8.70;;
72688;SDS011;61053;52.166;4.506;2022-09-09T04:38:46;16.73;;;8.57;;
72688;SDS011;61053;52.166;4.506;2022-09-09T04:41:13;12.60;;;6.00;;
72688;SDS011;61053;52.166;4.506;2022-09-09T04:43:41;10.52;;;5.57;;
72688;SDS011;61053;52.166;4.506;2022-09-09T04:46:07;11.90;;;5.57;;
72688;SDS011;61053;52.166;4.506;2022-09-09T04:48:34;12.98;;;6.07;;
72688;SDS011;61053;52.166;4.506;2022-09-09T04:51:06;14.75;;;5.53;;
72688;SDS011;61053;52.166;4.506;2022-09-09T04:53:35;12.63;;;5.70;;
72688;SDS011;61053;52.166;4.506;2022-09-09T04:56:05;11.82;;;6.03;;
72688;SDS011;61053;52.166;4.506;2022-09-09T04:58:37;14.65;;;5.95;;
72688;SDS011;61053;52.166;4.506;2022-09-09T05:03:38;10.23;;;4.90;;
72688;SDS011;61053;52.166;4.506;2022-09-09T05:06:04;12.68;;;4.50;;
72688;SDS011;61053;52.166;4.506;2022-09-09T05:08:31;9.85;;;4.50;;
72688;SDS011;61053;52.166;4.506;2022-09-09T05:10:58;8.70;;;4.40;;
72688;SDS011;61053;52.166;4.506;2022-09-09T05:13:24;11.07;;;4.05;;
72688;SDS011;61053;52.166;4.506;2022-09-09T05:15:54;12.07;;;4.22;;
72688;SDS011;61053;52.166;4.506;2022-09-09T05:18:26;9.18;;;4.10;;
72688;SDS011;61053;52.166;4.506;2022-09-09T05:20:51;9.70;;;4.00;;
72688;SDS011;61053;52.166;4.506;2022-09-09T05:23:20;13.25;;;4.63;;
72688;SDS011;61053;52.166;4.506;2022-09-09T05:25:53;10.13;;;3.58;;
72688;SDS011;61053;52.166;4.506;2022-09-09T05:28:25;13.15;;;4.88;;
72688;SDS011;61053;52.166;4.506;2022-09-09T05:30:58;8.45;;;3.50;;
72688;SDS011;61053;52.166;4.506;2022-09-09T05:33:25;9.40;;;4.65;;
72688;SDS011;61053;52.166;4.506;2022-09-09T05:35:58;9.80;;;3.95;;
72688;SDS011;61053;52.166;4.506;2022-09-09T05:38:31;16.67;;;5.13;;
72688;SDS011;61053;52.166;4.506;2022-09-09T05:40:58;13.45;;;4.35;;
72688;SDS011;61053;52.166;4.506;2022-09-09T05:43:25;7.93;;;4.20;;
72688;SDS011;61053;52.166;4.506;2022-09-09T05:46:08;8.95;;;4.38;;
72688;SDS011;61053;52.166;4.506;2022-09-09T05:48:40;8.93;;;4.18;;
72688;SDS011;61053;52.166;4.506;2022-09-09T05:51:09;13.70;;;4.75;;
72688;SDS011;61053;52.166;4.506;2022-09-09T05:53:37;11.50;;;4.07;;
72688;SDS011;61053;52.166;4.506;2022-09-09T05:58:33;8.60;;;4.22;;
72688;SDS011;61053;52.166;4.506;2022-09-09T06:01:00;10.32;;;4.57;;
72688;SDS011;61053;52.166;4.506;2022-09-09T06:03:28;12.85;;;4.22;;
72688;SDS011;61053;52.166;4.506;2022-09-09T06:05:57;10.90;;;3.63;;
72688;SDS011;61053;52.166;4.506;2022-09-09T06:08:27;13.32;;;4.45;;
72688;SDS011;61053;52.166;4.506;2022-09-09T06:10:53;13.68;;;4.10;;
72688;SDS011;61053;52.166;4.506;2022-09-09T06:13:18;13.27;;;4.13;;
72688;SDS011;61053;52.166;4.506;2022-09-09T06:15:50;10.75;;;3.65;;
72688;SDS011;61053;52.166;4.506;2022-09-09T06:18:17;13.15;;;3.40;;
72688;SDS011;61053;52.166;4.506;2022-09-09T06:20:53;14.93;;;3.65;;
72688;SDS011;61053;52.166;4.506;2022-09-09T06:23:29;8.23;;;3.13;;
72688;SDS011;61053;52.166;4.506;2022-09-09T06:28:40;9.10;;;3.22;;
72688;SDS011;61053;52.166;4.506;2022-09-09T06:31:08;8.80;;;3.05;;
72688;SDS011;61053;52.166;4.506;2022-09-09T06:33:37;12.88;;;2.90;;
72688;SDS011;61053;52.166;4.506;2022-09-09T06:36:06;14.57;;;3.05;;
72688;SDS011;61053;52.166;4.506;2022-09-09T06:38:38;8.35;;;3.22;;
72688;SDS011;61053;52.166;4.506;2022-09-09T06:41:04;6.57;;;2.70;;
72688;SDS011;61053;52.166;4.506;2022-09-09T06:43:30;12.00;;;2.95;;
72688;SDS011;61053;52.166;4.506;2022-09-09T06:48:25;11.05;;;3.40;;
72688;SDS011;61053;52.166;4.506;2022-09-09T06:51:14;8.85;;;3.28;;
72688;SDS011;61053;52.166;4.506;2022-09-09T06:53:52;13.82;;;3.50;;
72688;SDS011;61053;52.166;4.506;2022-09-09T06:56:27;12.63;;;3.53;;
72688;SDS011;61053;52.166;4.506;2022-09-09T06:58:58;12.45;;;4.30;;
72688;SDS011;61053;52.166;4.506;2022-09-09T07:01:31;9.90;;;4.93;;
72688;SDS011;61053;52.166;4.506;2022-09-09T07:06:29;19.25;;;4.55;;
72688;SDS011;61053;52.166;4.506;2022-09-09T07:09:04;10.73;;;3.80;;
72688;SDS011;61053;52.166;4.506;2022-09-09T07:11:36;9.10;;;3.67;;
72688;SDS011;61053;52.166;4.506;2022-09-09T07:14:08;19.27;;;4.35;;
72688;SDS011;61053;52.166;4.506;2022-09-09T07:16:34;17.45;;;4.28;;
72688;SDS011;61053;52.166;4.506;2022-09-09T07:19:02;10.35;;;4.00;;
72688;SDS011;61053;52.166;4.506;2022-09-09T07:21:29;12.98;;;5.35;;
72688;SDS011;61053;52.166;4.506;2022-09-09T07:24:00;11.18;;;4.80;;
72688;SDS011;61053;52.166;4.506;2022-09-09T07:26:28;12.95;;;3.85;;
72688;SDS011;61053;52.166;4.506;2022-09-09T07:28:56;10.30;;;4.28;;
72688;SDS011;61053;52.166;4.506;2022-09-09T07:31:25;11.38;;;4.00;;
72688;SDS011;61053;52.166;4.506;2022-09-09T07:33:53;12.52;;;4.50;;
72688;SDS011;61053;52.166;4.506;2022-09-09T07:36:22;12.90;;;4.18;;
72688;SDS011;61053;52.166;4.506;2022-09-09T07:38:52;9.27;;;4.15;;
72688;SDS011;61053;52.166;4.506;2022-09-09T07:41:25;16.35;;;4.20;;
72688;SDS011;61053;52.166;4.506;2022-09-09T07:44:22;16.40;;;4.13;;
72688;SDS011;61053;52.166;4.506;2022-09-09T07:46:52;15.27;;;5.05;;
72688;SDS011;61053;52.166;4.506;2022-09-09T07:49:17;13.75;;;4.63;;
72688;SDS011;61053;52.166;4.506;2022-09-09T07:51:44;11.15;;;4.38;;
72688;SDS011;61053;52.166;4.506;2022-09-09T07:54:13;13.35;;;4.55;;
72688;SDS011;61053;52.166;4.506;2022-09-09T07:56:42;15.52;;;4.95;;
72688;SDS011;61053;52.166;4.506;2022-09-09T07:59:08;14.68;;;3.55;;
72688;SDS011;61053;52.166;4.506;2022-09-09T08:01:38;10.23;;;4.40;;
72688;SDS011;61053;52.166;4.506;2022-09-09T08:04:09;15.35;;;4.70;;
72688;SDS011;61053;52.166;4.506;2022-09-09T08:06:42;9.32;;;4.10;;
72688;SDS011;61053;52.166;4.506;2022-09-09T08:09:17;17.25;;;4.60;;
72688;SDS011;61053;52.166;4.506;2022-09-09T08:11:45;9.35;;;4.13;;
72688;SDS011;61053;52.166;4.506;2022-09-09T08:14:11;11.82;;;4.60;;
72688;SDS011;61053;52.166;4.506;2022-09-09T08:16:38;15.10;;;4.97;;
72688;SDS011;61053;52.166;4.506;2022-09-09T08:19:09;17.52;;;5.13;;
72688;SDS011;61053;52.166;4.506;2022-09-09T08:21:36;13.18;;;4.70;;
72688;SDS011;61053;52.166;4.506;2022-09-09T08:24:05;11.55;;;3.95;;
72688;SDS011;61053;52.166;4.506;2022-09-09T08:26:33;13.90;;;4.07;;
72688;SDS011;61053;52.166;4.506;2022-09-09T08:29:02;10.68;;;4.22;;
72688;SDS011;61053;52.166;4.506;2022-09-09T08:31:34;14.02;;;4.32;;
72688;SDS011;61053;52.166;4.506;2022-09-09T08:34:09;11.23;;;4.05;;
72688;SDS011;61053;52.166;4.506;2022-09-09T08:36:36;8.32;;;3.78;;
72688;SDS011;61053;52.166;4.506;2022-09-09T08:39:08;15.90;;;3.90;;
72688;SDS011;61053;52.166;4.506;2022-09-09T08:47:51;12.90;;;4.22;;
72688;SDS011;61053;52.166;4.506;2022-09-09T08:50:37;15.25;;;3.90;;
72688;SDS011;61053;52.166;4.506;2022-09-09T08:53:09;12.35;;;3.53;;
72688;SDS011;61053;52.166;4.506;2022-09-09T08:55:51;19.73;;;4.60;;
72688;SDS011;61053;52.166;4.506;2022-09-09T08:58:33;9.80;;;3.55;;
72688;SDS011;61053;52.166;4.506;2022-09-09T09:09:08;9.52;;;3.72;;
72688;SDS011;61053;52.166;4.506;2022-09-09T09:12:17;12.32;;;3.67;;
72688;SDS011;61053;52.166;4.506;2022-09-09T09:14:46;9.30;;;3.80;;
72688;SDS011;61053;52.166;4.506;2022-09-09T09:17:16;7.47;;;3.80;;
72688;SDS011;61053;52.166;4.506;2022-09-09T09:19:48;11.40;;;4.18;;
72688;SDS011;61053;52.166;4.506;2022-09-09T09:25:17;11.25;;;4.40;;
72688;SDS011;61053;52.166;4.506;2022-09-09T09:33:23;18.75;;;6.45;;
72688;SDS011;61053;52.166;4.506;2022-09-09T09:35:52;16.65;;;7.88;;
72688;SDS011;61053;52.166;4.506;2022-09-09T09:40:48;19.50;;;9.10;;
72688;SDS011;61053;52.166;4.506;2022-09-09T09:43:29;19.73;;;8.85;;
72688;SDS011;61053;52.166;4.506;2022-09-09T09:46:03;27.55;;;8.82;;
72688;SDS011;61053;52.166;4.506;2022-09-09T09:48:30;15.23;;;7.30;;
72688;SDS011;61053;52.166;4.506;2022-09-09T09:51:08;23.60;;;8.20;;
72688;SDS011;61053;52.166;4.506;2022-09-09T09:53:38;11.68;;;6.90;;
72688;SDS011;61053;52.166;4.506;2022-09-09T09:56:05;16.98;;;7.55;;
72688;SDS011;61053;52.166;4.506;2022-09-09T10:03:58;17.00;;;7.50;;
72688;SDS011;61053;52.166;4.506;2022-09-09T10:06:51;19.88;;;7.43;;
72688;SDS011;61053;52.166;4.506;2022-09-09T10:09:23;13.40;;;6.35;;
72688;SDS011;61053;52.166;4.506;2022-09-09T10:11:59;11.30;;;6.18;;
72688;SDS011;61053;52.166;4.506;2022-09-09T10:35:44;14.25;;;5.43;;
72688;SDS011;61053;52.166;4.506;2022-09-09T10:38:17;17.38;;;5.60;;
72688;SDS011;61053;52.166;4.506;2022-09-09T10:52:49;28.75;;;7.63;;
72688;SDS011;61053;52.166;4.506;2022-09-09T10:55:20;15.52;;;7.78;;
72688;SDS011;61053;52.166;4.506;2022-09-09T10:57:53;15.07;;;8.27;;
72688;SDS011;61053;52.166;4.506;2022-09-09T11:00:24;14.32;;;5.20;;
72688;SDS011;61053;52.166;4.506;2022-09-09T11:03:01;12.10;;;5.38;;
72688;SDS011;61053;52.166;4.506;2022-09-09T11:08:20;13.43;;;4.45;;
72688;SDS011;61053;52.166;4.506;2022-09-09T11:13:49;8.45;;;4.05;;
72688;SDS011;61053;52.166;4.506;2022-09-09T11:16:24;6.78;;;3.30;;
72688;SDS011;61053;52.166;4.506;2022-09-09T11:19:00;9.18;;;4.32;;
72688;SDS011;61053;52.166;4.506;2022-09-09T11:21:44;10.05;;;3.33;;
72688;SDS011;61053;52.166;4.506;2022-09-09T11:27:01;8.63;;;2.83;;
72688;SDS011;61053;52.166;4.506;2022-09-09T11:38:45;8.13;;;3.10;;
72688;SDS011;61053;52.166;4.506;2022-09-09T11:41:08;10.98;;;3.60;;
72688;SDS011;61053;52.166;4.506;2022-09-09T11:43:47;9.00;;;3.17;;
72688;SDS011;61053;52.166;4.506;2022-09-09T11:46:17;9.60;;;3.67;;
72688;SDS011;61053;52.166;4.506;2022-09-09T11:49:01;8.18;;;3.45;;
72688;SDS011;61053;52.166;4.506;2022-09-09T11:51:31;10.43;;;4.65;;
72688;SDS011;61053;52.166;4.506;2022-09-09T11:53:59;16.13;;;7.10;;
72688;SDS011;61053;52.166;4.506;2022-09-09T11:57:25;11.65;;;5.07;;
72688;SDS011;61053;52.166;4.506;2022-09-09T11:59:59;16.45;;;6.10;;
72688;SDS011;61053;52.166;4.506;2022-09-09T12:02:26;23.48;;;9.10;;
72688;SDS011;61053;52.166;4.506;2022-09-09T12:05:03;11.85;;;5.55;;
72688;SDS011;61053;52.166;4.506;2022-09-09T12:07:38;13.45;;;7.65;;
72688;SDS011;61053;52.166;4.506;2022-09-09T12:12:53;19.80;;;7.15;;
72688;SDS011;61053;52.166;4.506;2022-09-09T12:15:23;11.73;;;6.80;;
72688;SDS011;61053;52.166;4.506;2022-09-09T12:17:54;10.82;;;6.22;;
72688;SDS011;61053;52.166;4.506;2022-09-09T12:20:30;18.55;;;5.85;;
72688;SDS011;61053;52.166;4.506;2022-09-09T12:34:42;7.57;;;3.45;;
72688;SDS011;61053;52.166;4.506;2022-09-09T12:40:30;5.32;;;4.20;;
72688;SDS011;61053;52.166;4.506;2022-09-09T12:43:00;13.40;;;6.13;;
72688;SDS011;61053;52.166;4.506;2022-09-09T12:45:46;9.68;;;4.85;;
72688;SDS011;61053;52.166;4.506;2022-09-09T12:48:16;9.05;;;5.13;;
72688;SDS011;61053;52.166;4.506;2022-09-09T12:50:55;9.45;;;4.70;;
72688;SDS011;61053;52.166;4.506;2022-09-09T12:53:29;12.65;;;5.88;;
72688;SDS011;61053;52.166;4.506;2022-09-09T12:56:03;10.70;;;5.57;;
72688;SDS011;61053;52.166;4.506;2022-09-09T12:58:44;10.90;;;4.30;;
72688;SDS011;61053;52.166;4.506;2022-09-09T13:03:49;8.38;;;3.38;;
72688;SDS011;61053;52.166;4.506;2022-09-09T13:06:20;16.20;;;6.80;;
72688;SDS011;61053;52.166;4.506;2022-09-09T13:08:55;9.02;;;3.72;;
72688;SDS011;61053;52.166;4.506;2022-09-09T13:11:28;9.07;;;3.47;;
72688;SDS011;61053;52.166;4.506;2022-09-09T13:14:12;8.48;;;4.20;;
72688;SDS011;61053;52.166;4.506;2022-09-09T13:16:56;9.57;;;3.70;;
72688;SDS011;61053;52.166;4.506;2022-09-09T13:19:37;6.75;;;3.53;;
72688;SDS011;61053;52.166;4.506;2022-09-09T13:25:13;4.25;;;2.60;;
72688;SDS011;61053;52.166;4.506;2022-09-09T13:28:02;7.82;;;3.05;;
72688;SDS011;61053;52.166;4.506;2022-09-09T13:30:54;7.25;;;3.75;;
72688;SDS011;61053;52.166;4.506;2022-09-09T13:33:33;10.50;;;3.50;;
72688;SDS011;61053;52.166;4.506;2022-09-09T13:36:03;6.35;;;3.05;;
72688;SDS011;61053;52.166;4.506;2022-09-09T13:38:35;8.57;;;3.67;;
72688;SDS011;61053;52.166;4.506;2022-09-09T13:41:08;9.02;;;3.13;;
72688;SDS011;61053;52.166;4.506;2022-09-09T13:43:45;5.20;;;2.90;;
72688;SDS011;61053;52.166;4.506;2022-09-09T13:54:12;11.85;;;3.80;;
72688;SDS011;61053;52.166;4.506;2022-09-09T13:56:40;10.32;;;3.45;;
72688;SDS011;61053;52.166;4.506;2022-09-09T13:59:12;4.53;;;2.30;;
72688;SDS011;61053;52.166;4.506;2022-09-09T14:01:56;5.85;;;2.50;;
72688;SDS011;61053;52.166;4.506;2022-09-09T14:04:22;7.78;;;2.33;;
72688;SDS011;61053;52.166;4.506;2022-09-09T14:06:49;8.70;;;1.80;;
72688;SDS011;61053;52.166;4.506;2022-09-09T14:09:16;2.55;;;1.30;;
72688;SDS011;61053;52.166;4.506;2022-09-09T14:11:43;5.97;;;1.45;;
72688;SDS011;61053;52.166;4.506;2022-09-09T14:14:11;3.30;;;1.23;;
72688;SDS011;61053;52.166;4.506;2022-09-09T14:16:39;3.60;;;1.17;;
72688;SDS011;61053;52.166;4.506;2022-09-09T14:19:05;3.05;;;0.98;;
72688;SDS011;61053;52.166;4.506;2022-09-09T14:21:34;3.08;;;1.05;;
72688;SDS011;61053;52.166;4.506;2022-09-09T14:23:59;1.65;;;0.80;;
72688;SDS011;61053;52.166;4.506;2022-09-09T14:26:25;3.33;;;0.90;;
72688;SDS011;61053;52.166;4.506;2022-09-09T14:28:51;7.00;;;2.25;;
72688;SDS011;61053;52.166;4.506;2022-09-09T14:31:17;6.53;;;1.38;;
72688;SDS011;61053;52.166;4.506;2022-09-09T14:33:44;4.45;;;1.00;;
72688;SDS011;61053;52.166;4.506;2022-09-09T14:36:10;11.52;;;1.88;;
72688;SDS011;61053;52.166;4.506;2022-09-09T14:38:37;3.90;;;1.13;;
72688;SDS011;61053;52.166;4.506;2022-09-09T14:41:06;4.55;;;1.23;;
72688;SDS011;61053;52.166;4.506;2022-09-09T14:43:35;5.65;;;1.70;;
72688;SDS011;61053;52.166;4.506;2022-09-09T14:46:09;5.30;;;1.73;;
72688;SDS011;61053;52.166;4.506;2022-09-09T14:48:38;4.32;;;1.50;;
72688;SDS011;61053;52.166;4.506;2022-09-09T14:51:08;9.02;;;2.53;;
72688;SDS011;61053;52.166;4.506;2022-09-09T14:53:34;6.45;;;1.70;;
72688;SDS011;61053;52.166;4.506;2022-09-09T14:56:04;6.18;;;2.13;;
72688;SDS011;61053;52.166;4.506;2022-09-09T14:58:34;11.38;;;2.55;;
72688;SDS011;61053;52.166;4.506;2022-09-09T15:01:07;7.65;;;1.83;;
72688;SDS011;61053;52.166;4.506;2022-09-09T15:03:36;9.40;;;2.10;;
72688;SDS011;61053;52.166;4.506;2022-09-09T15:06:06;8.07;;;2.00;;
72688;SDS011;61053;52.166;4.506;2022-09-09T15:08:37;5.22;;;2.03;;
72688;SDS011;61053;52.166;4.506;2022-09-09T15:11:05;20.95;;;3.45;;
72688;SDS011;61053;52.166;4.506;2022-09-09T15:13:32;8.00;;;2.22;;
72688;SDS011;61053;52.166;4.506;2022-09-09T15:16:15;6.10;;;2.10;;
72688;SDS011;61053;52.166;4.506;2022-09-09T15:18:43;7.22;;;2.00;;
72688;SDS011;61053;52.166;4.506;2022-09-09T15:21:14;5.55;;;1.80;;
72688;SDS011;61053;52.166;4.506;2022-09-09T15:23:44;7.85;;;2.80;;
72688;SDS011;61053;52.166;4.506;2022-09-09T15:26:12;10.80;;;2.45;;
72688;SDS011;61053;52.166;4.506;2022-09-09T15:28:40;10.15;;;2.40;;
72688;SDS011;61053;52.166;4.506;2022-09-09T15:31:13;13.43;;;4.00;;
72688;SDS011;61053;52.166;4.506;2022-09-09T15:33:48;13.77;;;3.33;;
72688;SDS011;61053;52.166;4.506;2022-09-09T15:36:34;9.45;;;2.60;;
72688;SDS011;61053;52.166;4.506;2022-09-09T15:39:05;9.68;;;2.65;;
72688;SDS011;61053;52.166;4.506;2022-09-09T15:41:34;14.20;;;2.55;;
72688;SDS011;61053;52.166;4.506;2022-09-09T15:44:00;7.78;;;2.20;;
72688;SDS011;61053;52.166;4.506;2022-09-09T15:46:30;6.10;;;1.80;;
72688;SDS011;61053;52.166;4.506;2022-09-09T15:49:09;6.13;;;2.30;;
72688;SDS011;61053;52.166;4.506;2022-09-09T15:51:35;6.97;;;2.40;;
72688;SDS011;61053;52.166;4.506;2022-09-09T15:54:03;9.00;;;2.40;;
72688;SDS011;61053;52.166;4.506;2022-09-09T15:56:30;6.25;;;1.90;;
72688;SDS011;61053;52.166;4.506;2022-09-09T15:58:58;3.78;;;1.50;;
72688;SDS011;61053;52.166;4.506;2022-09-09T16:01:25;3.80;;;1.63;;
72688;SDS011;61053;52.166;4.506;2022-09-09T16:03:52;4.28;;;1.70;;
72688;SDS011;61053;52.166;4.506;2022-09-09T16:06:19;4.43;;;1.50;;
72688;SDS011;61053;52.166;4.506;2022-09-09T16:08:49;5.82;;;1.70;;
72688;SDS011;61053;52.166;4.506;2022-09-09T16:11:20;6.70;;;2.40;;
72688;SDS011;61053;52.166;4.506;2022-09-09T16:13:49;8.45;;;2.08;;
72688;SDS011;61053;52.166;4.506;2022-09-09T16:16:18;5.65;;;2.20;;
72688;SDS011;61053;52.166;4.506;2022-09-09T16:18:51;6.20;;;1.98;;
72688;SDS011;61053;52.166;4.506;2022-09-09T16:23:54;7.78;;;2.40;;
72688;SDS011;61053;52.166;4.506;2022-09-09T16:26:27;5.38;;;2.10;;
72688;SDS011;61053;52.166;4.506;2022-09-09T16:28:56;10.30;;;2.35;;
72688;SDS011;61053;52.166;4.506;2022-09-09T16:31:23;8.02;;;2.90;;
72688;SDS011;61053;52.166;4.506;2022-09-09T16:33:50;7.30;;;2.65;;
72688;SDS011;61053;52.166;4.506;2022-09-09T16:36:17;8.13;;;3.05;;
72688;SDS011;61053;52.166;4.506;2022-09-09T16:38:53;5.82;;;3.22;;
72688;SDS011;61053;52.166;4.506;2022-09-09T16:41:22;7.90;;;3.30;;
72688;SDS011;61053;52.166;4.506;2022-09-09T16:43:55;10.35;;;3.80;;
72688;SDS011;61053;52.166;4.506;2022-09-09T16:46:24;14.50;;;4.03;;
72688;SDS011;61053;52.166;4.506;2022-09-09T16:48:52;9.07;;;3.65;;
72688;SDS011;61053;52.166;4.506;2022-09-09T16:51:21;11.50;;;4.20;;
72688;SDS011;61053;52.166;4.506;2022-09-09T16:53:57;11.50;;;4.18;;
72688;SDS011;61053;52.166;4.506;2022-09-09T16:56:26;11.73;;;5.97;;
72688;SDS011;61053;52.166;4.506;2022-09-09T16:58:58;12.60;;;4.25;;
72688;SDS011;61053;52.166;4.506;2022-09-09T17:01:29;14.50;;;5.10;;
72688;SDS011;61053;52.166;4.506;2022-09-09T17:03:59;11.30;;;5.70;;
72688;SDS011;61053;52.166;4.506;2022-09-09T17:06:27;16.35;;;7.07;;
72688;SDS011;61053;52.166;4.506;2022-09-09T17:08:56;17.52;;;6.40;;
72688;SDS011;61053;52.166;4.506;2022-09-09T17:11:30;11.65;;;6.40;;
72688;SDS011;61053;52.166;4.506;2022-09-09T17:13:56;13.70;;;7.72;;
72688;SDS011;61053;52.166;4.506;2022-09-09T17:16:24;14.27;;;6.72;;
72688;SDS011;61053;52.166;4.506;2022-09-09T17:18:52;19.13;;;9.70;;
72688;SDS011;61053;52.166;4.506;2022-09-09T17:21:21;27.40;;;11.48;;
72688;SDS011;61053;52.166;4.506;2022-09-09T17:23:50;16.63;;;9.77;;
72688;SDS011;61053;52.166;4.506;2022-09-09T17:26:17;28.70;;;15.85;;
72688;SDS011;61053;52.166;4.506;2022-09-09T17:28:45;52.83;;;22.25;;
72688;SDS011;61053;52.166;4.506;2022-09-09T17:31:11;49.38;;;22.55;;
72688;SDS011;61053;52.166;4.506;2022-09-09T17:33:41;34.38;;;16.00;;
72688;SDS011;61053;52.166;4.506;2022-09-09T17:36:12;28.98;;;16.02;;
72688;SDS011;61053;52.166;4.506;2022-09-09T17:38:41;28.77;;;14.07;;
72688;SDS011;61053;52.166;4.506;2022-09-09T17:41:12;18.90;;;8.98;;
72688;SDS011;61053;52.166;4.506;2022-09-09T17:43:39;33.92;;;15.18;;
72688;SDS011;61053;52.166;4.506;2022-09-09T17:46:07;23.15;;;12.23;;
72688;SDS011;61053;52.166;4.506;2022-09-09T17:48:34;29.98;;;14.48;;
72688;SDS011;61053;52.166;4.506;2022-09-09T17:51:04;41.90;;;16.33;;
72688;SDS011;61053;52.166;4.506;2022-09-09T17:53:37;25.73;;;12.48;;
72688;SDS011;61053;52.166;4.506;2022-09-09T17:56:08;29.90;;;12.15;;
72688;SDS011;61053;52.166;4.506;2022-09-09T17:58:35;33.22;;;14.15;;